Time;durP1;ratioP1;P1;durP2;ratioP2;P2;SDS_P1;SDS_P2;PMS_P1;PMS_P2;Temp;Humidity;BMP_temperature;BMP_pressure;BME280_temperature;BME280_humidity;BME280_pressure;Samples;Min_cycle;Max_cycle;Signal;HPM_P1;HPM_P2
2021/04/27 00:02:13;;;;;;;0.20;0.20;;;;;;;3.91;43.23;97514.50;4973992;28;20044;-66
2021/04/27 00:04:38;;;;;;;0.20;0.20;;;;;;;3.88;43.25;97514.13;4973899;28;20038;-65
2021/04/27 00:07:04;;;;;;;0.20;0.20;;;;;;;3.88;43.19;97522.25;4974040;28;20031;-64
2021/04/27 00:09:30;;;;;;;0.20;0.20;;;;;;;3.88;43.18;97511.41;4973888;28;20389;-64
2021/04/27 00:11:56;;;;;;;0.20;0.20;;;;;;;3.89;43.17;97494.88;4974214;28;20038;-65
2021/04/27 00:14:22;;;;;;;0.20;0.20;;;;;;;3.92;43.25;97510.72;4974349;28;20034;-65
2021/04/27 00:16:48;;;;;;;0.20;0.20;;;;;;;3.91;43.05;97505.53;4973788;28;20057;-64
2021/04/27 00:19:13;;;;;;;0.20;0.20;;;;;;;3.93;43.00;97512.41;4973959;28;20027;-63
2021/04/27 00:21:39;;;;;;;0.20;0.20;;;;;;;3.94;43.04;97515.94;4975290;28;20039;-64
2021/04/27 00:24:06;;;;;;;0.20;0.20;;;;;;;3.92;42.98;97505.28;4973895;28;20037;-64
2021/04/27 00:26:32;;;;;;;0.20;0.20;;;;;;;3.93;42.95;97506.13;4973742;28;20027;-64
2021/04/27 00:28:58;;;;;;;0.20;0.20;;;;;;;3.95;42.93;97506.75;4973651;28;20031;-64
2021/04/27 00:31:24;;;;;;;5.38;0.47;;;;;;;3.96;42.88;97509.22;4973668;28;20037;-65
2021/04/27 00:33:49;;;;;;;0.20;0.20;;;;;;;3.96;42.64;97502.94;4973998;28;20509;-65
2021/04/27 00:36:15;;;;;;;0.20;0.20;;;;;;;3.98;42.79;97495.44;4975056;28;20042;-64
2021/04/27 00:38:41;;;;;;;0.22;0.22;;;;;;;3.94;42.91;97491.50;4977672;28;20098;-64
2021/04/27 00:41:09;;;;;;;0.20;0.20;;;;;;;3.97;43.00;97488.31;4985598;28;20125;-64
2021/04/27 00:43:36;;;;;;;0.20;0.20;;;;;;;4.00;42.81;97487.88;4977710;28;20378;-66
2021/04/27 00:46:01;;;;;;;0.20;0.20;;;;;;;4.00;42.65;97487.88;4977375;28;20500;-63
2021/04/27 00:48:27;;;;;;;0.15;0.15;;;;;;;4.01;42.96;97494.97;4977336;28;20073;-64
2021/04/27 00:50:53;;;;;;;0.20;0.20;;;;;;;4.04;42.78;97502.66;4977606;28;20039;-64
2021/04/27 00:53:19;;;;;;;0.20;0.20;;;;;;;4.05;42.94;97501.63;4977671;28;20034;-65
2021/04/27 00:55:45;;;;;;;0.20;0.20;;;;;;;4.09;42.69;97502.81;4977364;28;20066;-66
2021/04/27 00:58:10;;;;;;;0.20;0.20;;;;;;;4.14;42.54;97494.00;4977360;28;20055;-63
2021/04/27 01:00:39;;;;;;;0.20;0.20;;;;;;;4.18;42.67;97489.75;4977289;28;20544;-62
2021/04/27 01:03:05;;;;;;;0.20;0.20;;;;;;;4.21;42.53;97497.44;4977662;28;20031;-63
2021/04/27 01:05:34;;;;;;;0.20;0.20;;;;;;;4.27;42.55;97482.13;4977441;28;20027;-62
2021/04/27 01:08:17;;;;;;;0.43;0.43;;;;;;;4.33;42.38;97486.69;4977229;28;20039;-61
2021/04/27 01:10:58;;;;;;;0.20;0.20;;;;;;;4.41;42.35;97480.91;4976848;28;20031;-62
2021/04/27 01:13:49;;;;;;;0.20;0.20;;;;;;;4.62;42.12;97497.81;4991926;28;20077;-63
2021/04/27 01:16:18;;;;;;;0.20;0.20;;;;;;;5.74;40.53;97485.44;4977140;28;20097;-64
2021/04/27 01:18:51;;;;;;;0.20;0.20;;;;;;;8.02;36.93;97493.13;4976745;28;20027;-63
2021/04/27 01:21:18;;;;;;;0.20;0.20;;;;;;;10.20;34.12;97480.59;4991825;28;20073;-63
2021/04/27 01:23:53;;;;;;;0.20;0.20;;;;;;;11.69;32.37;97470.06;4977278;28;20134;-64
2021/04/27 01:26:19;;;;;;;0.20;0.20;;;;;;;12.87;31.48;97482.81;4977442;28;20041;-62
2021/04/27 01:28:45;;;;;;;0.20;0.20;;;;;;;13.71;31.12;97473.75;4976887;28;20405;-64
2021/04/27 01:31:12;;;;;;;0.20;0.20;;;;;;;14.53;30.58;97471.03;4977100;28;20046;-65
2021/04/27 01:33:39;;;;;;;0.20;0.20;;;;;;;15.34;30.06;97467.53;4977097;28;20034;-70
2021/04/27 01:36:07;;;;;;;0.20;0.20;;;;;;;16.02;30.03;97473.69;4976767;28;20121;-68
2021/04/27 01:38:34;;;;;;;0.20;0.20;;;;;;;16.84;29.53;97473.25;4976636;28;20069;-68
2021/04/27 01:41:00;;;;;;;0.20;0.20;;;;;;;17.40;29.40;97474.84;4991446;28;20142;-65
2021/04/27 01:43:27;;;;;;;0.20;0.20;;;;;;;17.73;29.60;97473.81;4974920;28;20522;-64
2021/04/27 01:46:00;;;;;;;0.20;0.20;;;;;;;18.17;29.51;97475.78;4976405;28;20038;-65
2021/04/27 01:48:26;;;;;;;0.10;0.10;;;;;;;18.55;29.48;97483.69;4976028;28;20058;-64
2021/04/27 01:50:54;;;;;;;0.10;0.10;;;;;;;18.99;29.22;97466.34;4976720;28;20421;-66
2021/04/27 01:53:20;;;;;;;0.20;0.20;;;;;;;19.29;29.34;97472.13;4977340;28;20038;-66
2021/04/27 01:55:46;;;;;;;0.10;0.10;;;;;;;19.52;29.43;97467.25;4977050;28;20030;-64
2021/04/27 01:58:12;;;;;;;0.20;0.20;;;;;;;19.71;29.35;97467.78;4969662;28;20078;-65
2021/04/27 02:00:38;;;;;;;0.10;0.10;;;;;;;19.66;29.92;97467.13;4968683;28;20038;-65
2021/04/27 02:03:04;;;;;;;0.10;0.10;;;;;;;19.81;29.96;97463.03;4972233;28;20026;-63
2021/04/27 02:05:31;;;;;;;0.10;0.10;;;;;;;19.88;30.01;97455.81;4971954;28;20088;-65
2021/04/27 02:07:57;;;;;;;0.20;0.20;;;;;;;20.07;29.97;97454.66;4974273;28;20062;-67
2021/04/27 02:10:27;;;;;;;0.10;0.10;;;;;;;20.45;29.79;97442.72;4983843;28;20479;-68
2021/04/27 02:13:02;;;;;;;0.10;0.10;;;;;;;20.64;29.66;97450.69;4968950;28;20105;-67
2021/04/27 02:15:29;;;;;;;0.10;0.10;;;;;;;20.80;29.85;97443.47;4973700;28;20129;-72
2021/04/27 02:18:30;;;;;;;0.10;0.10;;;;;;;20.99;29.58;97456.16;4971035;28;20121;-63
2021/04/27 02:21:00;;;;;;;0.10;0.10;;;;;;;21.33;29.47;97459.88;4934983;29;20043;-67
2021/04/27 02:23:28;;;;;;;0.10;0.10;;;;;;;21.62;29.22;97459.03;4936788;29;20041;-64
2021/04/27 02:25:55;;;;;;;0.10;0.10;;;;;;;21.98;28.96;97460.38;4934706;29;20413;-63
2021/04/27 02:28:22;;;;;;;0.30;0.30;;;;;;;22.35;28.77;97459.72;4917786;29;20038;-63
2021/04/27 02:30:49;;;;;;;0.10;0.10;;;;;;;22.37;28.93;97466.56;4919728;29;20387;-64
2021/04/27 02:33:17;;;;;;;0.10;0.10;;;;;;;22.49;28.87;97462.19;4935260;29;20127;-64
2021/04/27 02:35:44;;;;;;;0.20;0.20;;;;;;;22.78;28.67;97465.97;4919077;29;20054;-62
2021/04/27 02:38:11;;;;;;;0.10;0.10;;;;;;;23.02;28.71;97468.75;4938951;29;20047;-64
2021/04/27 02:40:38;;;;;;;0.10;0.10;;;;;;;22.91;29.01;97465.59;4943600;29;20031;-64
2021/04/27 02:43:04;;;;;;;0.10;0.10;;;;;;;22.75;29.13;97456.28;4938754;29;20619;-63
2021/04/27 02:45:32;;;;;;;0.10;0.10;;;;;;;22.71;29.45;97472.94;4953101;29;20043;-64
2021/04/27 02:48:10;;;;;;;0.10;0.10;;;;;;;22.84;29.10;97447.78;4918436;29;20091;-63
2021/04/27 02:50:38;;;;;;;0.13;0.13;;;;;;;22.46;29.86;97468.47;4918269;29;20188;-64
2021/04/27 02:53:04;;;;;;;0.10;0.10;;;;;;;22.59;29.45;97467.34;4934807;29;20115;-63
2021/04/27 02:55:30;;;;;;;0.40;0.40;;;;;;;22.47;29.91;97478.50;4942786;29;20142;-64
2021/04/27 02:57:56;;;;;;;0.10;0.10;;;;;;;22.43;29.75;97463.56;4961111;28;20051;-63
2021/04/27 03:00:22;;;;;;;0.10;0.10;;;;;;;22.36;29.99;97456.56;4975075;28;20054;-64
2021/04/27 03:02:48;;;;;;;0.20;0.20;;;;;;;22.38;29.61;97459.03;4974325;28;20042;-64
2021/04/27 03:05:14;;;;;;;0.10;0.10;;;;;;;22.62;29.69;97468.63;4974997;28;20408;-65
2021/04/27 03:07:40;;;;;;;0.10;0.10;;;;;;;22.90;29.26;97480.75;4974933;28;20042;-63
2021/04/27 03:10:06;;;;;;;0.10;0.10;;;;;;;23.28;29.12;97478.81;4974725;28;20030;-64
2021/04/27 03:12:32;;;;;;;0.10;0.10;;;;;;;23.49;28.52;97477.84;4974826;28;20039;-64
2021/04/27 03:14:58;;;;;;;0.10;0.10;;;;;;;23.32;28.90;97482.56;4974975;28;20041;-64
2021/04/27 03:17:24;;;;;;;0.10;0.10;;;;;;;23.07;29.29;97504.94;4989951;28;20034;-63
2021/04/27 03:19:50;;;;;;;0.10;0.10;;;;;;;23.70;28.93;97498.09;4989420;28;20080;-64
2021/04/27 03:22:15;;;;;;;0.10;0.10;;;;;;;24.71;27.48;97486.97;4974938;28;20027;-63
2021/04/27 03:24:41;;;;;;;0.10;0.10;;;;;;;25.65;27.10;97494.91;4974853;28;20159;-64
2021/04/27 03:27:07;;;;;;;0.10;0.10;;;;;;;26.65;26.25;97489.69;4974816;28;20496;-65
2021/04/27 03:29:33;;;;;;;0.10;0.10;;;;;;;26.91;26.17;97492.63;4974626;28;20425;-65
2021/04/27 03:31:58;;;;;;;0.10;0.10;;;;;;;26.80;26.60;97486.00;4972545;28;20492;-63
2021/04/27 03:34:27;;;;;;;0.10;0.10;;;;;;;25.99;27.39;97473.56;4976042;28;20109;-64
2021/04/27 03:36:53;;;;;;;0.10;0.10;;;;;;;24.95;28.92;97493.59;4974085;28;20117;-64
2021/04/27 03:39:19;;;;;;;0.10;0.10;;;;;;;24.18;29.92;97500.34;4974174;28;20117;-65
2021/04/27 03:41:45;;;;;;;0.10;0.10;;;;;;;24.29;29.50;97499.47;4972761;28;20031;-64
2021/04/27 03:44:11;;;;;;;0.10;0.10;;;;;;;24.88;28.68;97501.84;4989041;28;20038;-64
2021/04/27 03:46:37;;;;;;;0.10;0.10;;;;;;;25.08;28.30;97500.75;4974187;28;20034;-63
2021/04/27 03:49:03;;;;;;;0.10;0.10;;;;;;;24.99;28.66;97506.53;4972728;28;20082;-64
2021/04/27 03:51:29;;;;;;;0.10;0.10;;;;;;;24.86;28.84;97492.97;4974234;28;20560;-64
2021/04/27 03:53:55;;;;;;;0.10;0.10;;;;;;;24.66;29.21;97495.66;4975133;28;20113;-64
2021/04/27 03:56:20;;;;;;;0.10;0.10;;;;;;;24.57;28.80;97509.00;4974355;28;20034;-65
2021/04/27 03:58:46;;;;;;;0.10;0.10;;;;;;;24.37;29.15;97497.66;4973752;28;20121;-63
2021/04/27 04:01:12;;;;;;;0.10;0.10;;;;;;;24.42;28.92;97500.19;4972160;28;20023;-64
2021/04/27 04:03:39;;;;;;;0.10;0.10;;;;;;;24.45;29.18;97513.50;4973990;28;20045;-64
2021/04/27 04:06:05;;;;;;;0.85;0.38;;;;;;;24.92;28.66;97516.78;4973931;28;20031;-63
2021/04/27 04:08:32;;;;;;;0.10;0.10;;;;;;;24.90;28.22;97517.16;4972494;28;20034;-64
2021/04/27 04:10:58;;;;;;;0.13;0.13;;;;;;;24.80;28.65;97529.72;4973219;28;20031;-63
2021/04/27 04:13:23;;;;;;;0.10;0.10;;;;;;;24.51;29.08;97528.09;4973865;28;20033;-63
2021/04/27 04:15:49;;;;;;;0.10;0.10;;;;;;;24.82;28.22;97527.38;4973650;28;20039;-65
2021/04/27 04:18:15;;;;;;;0.10;0.10;;;;;;;25.08;27.85;97517.59;4974165;28;20122;-65
2021/04/27 04:20:41;;;;;;;0.10;0.10;;;;;;;24.61;28.91;97524.00;4953176;28;20027;-64
2021/04/27 04:23:07;;;;;;;0.10;0.10;;;;;;;23.93;29.52;97534.06;4954910;29;20475;-64
2021/04/27 04:25:33;;;;;;;0.10;0.10;;;;;;;24.54;28.55;97529.38;4954499;28;20037;-64
2021/04/27 04:27:58;;;;;;;0.10;0.10;;;;;;;24.46;28.80;97534.78;4954718;28;20035;-64
2021/04/27 04:30:25;;;;;;;0.10;0.10;;;;;;;24.70;28.26;97540.66;4973281;28;20035;-65
2021/04/27 04:32:53;;;;;;;0.10;0.10;;;;;;;25.15;27.99;97533.81;4973737;28;20536;-63
2021/04/27 04:35:21;;;;;;;0.10;0.10;;;;;;;25.73;27.45;97524.78;4973973;28;20042;-64
2021/04/27 04:37:48;;;;;;;0.10;0.10;;;;;;;25.82;27.36;97533.81;4974026;28;20038;-63
2021/04/27 04:40:15;;;;;;;0.20;0.20;;;;;;;25.14;28.13;97543.41;4973738;28;20026;-65
2021/04/27 04:42:41;;;;;;;0.10;0.10;;;;;;;23.61;29.59;97529.09;4973302;28;20034;-65
2021/04/27 04:45:10;;;;;;;0.10;0.10;;;;;;;20.62;32.82;97533.88;4973527;28;20118;-65
2021/04/27 04:47:36;;;;;;;0.10;0.10;;;;;;;18.29;36.05;97543.84;4973488;28;20552;-64
2021/04/27 04:50:04;;;;;;;0.10;0.10;;;;;;;16.98;37.14;97540.66;4988441;28;20072;-64
2021/04/27 04:52:29;;;;;;;0.10;0.10;;;;;;;16.07;37.59;97544.75;4973584;28;20134;-63
2021/04/27 04:54:55;;;;;;;0.10;0.10;;;;;;;15.38;37.46;97534.13;4973469;28;20051;-63
2021/04/27 04:57:21;;;;;;;0.63;0.55;;;;;;;14.71;38.05;97537.72;4973692;28;20031;-63
2021/04/27 04:59:48;;;;;;;0.20;0.20;;;;;;;14.33;37.79;97545.81;4973802;28;20142;-63
2021/04/27 05:02:14;;;;;;;0.40;0.40;;;;;;;14.26;37.10;97526.81;4973496;28;20022;-63
2021/04/27 05:04:39;;;;;;;0.10;0.10;;;;;;;14.17;36.39;97534.88;4973271;28;20038;-63
2021/04/27 05:07:09;;;;;;;0.10;0.10;;;;;;;13.95;36.15;97537.28;4973556;28;20169;-64
2021/04/27 05:09:35;;;;;;;0.47;0.47;;;;;;;13.71;35.80;97539.97;4973176;28;20046;-63
2021/04/27 05:12:02;;;;;;;0.20;0.20;;;;;;;13.52;35.84;97537.06;4973213;28;20031;-63
2021/04/27 05:14:30;;;;;;;0.10;0.10;;;;;;;13.30;35.87;97536.28;4973523;28;20081;-63
2021/04/27 05:16:58;;;;;;;0.10;0.10;;;;;;;13.12;35.57;97547.97;4973351;28;20041;-64
2021/04/27 05:19:23;;;;;;;0.10;0.10;;;;;;;12.99;35.58;97556.84;4973134;28;20058;-63
2021/04/27 05:21:49;;;;;;;0.20;0.20;;;;;;;12.93;35.12;97542.28;4973926;28;20073;-63
2021/04/27 05:24:15;;;;;;;0.13;0.13;;;;;;;12.96;35.09;97550.78;4976899;28;20392;-63
2021/04/27 05:26:41;;;;;;;0.10;0.10;;;;;;;13.04;34.72;97551.31;4976969;28;20031;-63
2021/04/27 05:29:08;;;;;;;0.10;0.10;;;;;;;13.17;34.07;97533.34;4976646;28;20031;-64
2021/04/27 05:31:34;;;;;;;0.10;0.10;;;;;;;13.18;34.21;97540.53;4976621;28;20060;-63
2021/04/27 05:33:59;;;;;;;0.10;0.10;;;;;;;13.25;33.71;97552.88;4976542;28;20039;-64
2021/04/27 05:36:25;;;;;;;0.20;0.20;;;;;;;13.39;33.29;97546.78;4976405;28;20077;-62
2021/04/27 05:38:51;;;;;;;0.10;0.10;;;;;;;13.45;33.20;97523.56;4976854;28;20049;-64
2021/04/27 05:41:17;;;;;;;0.20;0.20;;;;;;;13.46;33.08;97522.47;4975875;28;20050;-63
2021/04/27 05:43:42;;;;;;;0.10;0.10;;;;;;;13.45;33.33;97540.13;4974853;28;20027;-64
2021/04/27 05:46:09;;;;;;;0.10;0.10;;;;;;;13.45;32.94;97538.16;4976719;28;20120;-64
2021/04/27 05:48:35;;;;;;;0.10;0.10;;;;;;;13.54;32.86;97532.88;4976704;28;20026;-64
2021/04/27 05:51:00;;;;;;;0.10;0.10;;;;;;;13.50;32.78;97542.84;4976154;28;20400;-63
2021/04/27 05:53:26;;;;;;;0.10;0.10;;;;;;;13.39;32.74;97536.56;4976155;28;20452;-63
2021/04/27 05:55:52;;;;;;;0.10;0.10;;;;;;;13.09;33.50;97534.78;4976561;28;20488;-64
2021/04/27 05:58:18;;;;;;;0.20;0.20;;;;;;;12.79;33.62;97539.28;4976079;28;20062;-63
2021/04/27 06:00:44;;;;;;;0.13;0.13;;;;;;;12.65;33.86;97533.53;4975975;28;20030;-66
2021/04/27 06:03:09;;;;;;;0.10;0.10;;;;;;;12.67;33.54;97544.28;4976040;28;20201;-63
2021/04/27 06:05:35;;;;;;;0.20;0.20;;;;;;;12.75;33.33;97543.69;4976314;28;20123;-64
2021/04/27 06:08:01;;;;;;;0.10;0.10;;;;;;;12.76;33.44;97545.34;4976329;28;20042;-63
2021/04/27 06:10:27;;;;;;;0.10;0.10;;;;;;;12.72;33.14;97550.59;4975995;28;20031;-63
2021/04/27 06:12:52;;;;;;;0.10;0.10;;;;;;;12.62;33.47;97547.88;4976107;28;20038;-64
2021/04/27 06:15:18;;;;;;;0.10;0.10;;;;;;;12.62;33.32;97536.88;4975859;28;20118;-64
2021/04/27 06:17:45;;;;;;;0.10;0.10;;;;;;;12.63;33.12;97524.72;4975798;28;20400;-63
2021/04/27 06:20:12;;;;;;;0.17;0.17;;;;;;;12.72;32.89;97530.47;4975964;28;20035;-64
2021/04/27 06:22:38;;;;;;;0.10;0.10;;;;;;;12.90;32.71;97529.06;4975710;28;20031;-64
2021/04/27 06:25:06;;;;;;;0.10;0.10;;;;;;;12.84;32.92;97536.53;4973549;28;20023;-64
2021/04/27 06:27:32;;;;;;;0.10;0.10;;;;;;;12.53;33.30;97535.75;4990375;28;20038;-63
2021/04/27 06:30:00;;;;;;;0.10;0.10;;;;;;;12.24;33.54;97539.94;4975115;28;20031;-64
2021/04/27 06:32:26;;;;;;;0.73;0.73;;;;;;;12.09;33.77;97527.03;4990186;28;20138;-63
2021/04/27 06:34:51;;;;;;;0.20;0.20;;;;;;;12.01;33.71;97522.06;4989272;28;20122;-64
2021/04/27 06:37:17;;;;;;;0.10;0.10;;;;;;;11.91;33.85;97524.78;4975805;28;20554;-63
2021/04/27 06:39:43;;;;;;;0.10;0.10;;;;;;;11.85;33.84;97520.41;4975217;28;20026;-62
2021/04/27 06:42:09;;;;;;;0.10;0.10;;;;;;;11.83;33.73;97519.84;4975789;28;20039;-63
2021/04/27 06:44:36;;;;;;;0.10;0.10;;;;;;;11.79;33.92;97527.81;4973792;28;20176;-65
2021/04/27 06:47:03;;;;;;;0.10;0.10;;;;;;;11.70;34.10;97530.31;4975261;28;20030;-63
2021/04/27 06:49:29;;;;;;;0.50;0.50;;;;;;;11.68;34.01;97509.69;4976665;28;20389;-63
2021/04/27 06:51:54;;;;;;;0.10;0.10;;;;;;;11.63;34.00;97526.16;4975573;28;20039;-64
2021/04/27 06:54:20;;;;;;;0.10;0.10;;;;;;;11.58;33.79;97527.78;4973514;28;20035;-63
2021/04/27 06:56:46;;;;;;;0.10;0.10;;;;;;;11.56;33.86;97520.94;4975128;28;20051;-63
2021/04/27 06:59:14;;;;;;;0.20;0.20;;;;;;;11.53;33.92;97519.56;4974678;28;20117;-63
2021/04/27 07:01:39;;;;;;;0.17;0.17;;;;;;;11.53;33.92;97494.00;4974714;28;20027;-63
2021/04/27 07:04:05;;;;;;;0.20;0.20;;;;;;;11.51;33.85;97498.94;4974683;28;20145;-64
2021/04/27 07:06:31;;;;;;;0.10;0.10;;;;;;;11.50;33.57;97502.81;4974863;28;20038;-64
2021/04/27 07:08:56;;;;;;;0.15;0.15;;;;;;;11.51;33.74;97501.69;4974840;28;20085;-63
2021/04/27 07:11:22;;;;;;;0.10;0.10;;;;;;;11.56;33.61;97505.25;4989296;28;20451;-64
2021/04/27 07:13:48;;;;;;;0.10;0.10;;;;;;;11.63;33.38;97493.16;4973022;28;20062;-62
2021/04/27 07:16:16;;;;;;;0.20;0.20;;;;;;;11.63;33.41;97495.91;4974481;28;20070;-65
2021/04/27 07:18:42;;;;;;;0.10;0.10;;;;;;;11.58;33.55;97497.56;4974242;28;20039;-64
2021/04/27 07:21:08;;;;;;;0.10;0.10;;;;;;;11.64;33.45;97481.09;4975041;28;20038;-64
2021/04/27 07:23:34;;;;;;;0.10;0.10;;;;;;;11.67;33.29;97492.34;4974629;28;20063;-64
2021/04/27 07:26:00;;;;;;;0.10;0.10;;;;;;;11.72;33.26;97488.78;4974587;28;20046;-63
2021/04/27 07:28:25;;;;;;;0.10;0.10;;;;;;;11.79;33.37;97489.31;4974645;28;20031;-63
2021/04/27 07:30:52;;;;;;;0.10;0.10;;;;;;;11.81;33.14;97478.88;4974765;28;20118;-65
2021/04/27 07:33:19;;;;;;;0.10;0.10;;;;;;;11.83;33.03;97497.84;4974301;28;20035;-63
2021/04/27 07:35:45;;;;;;;0.10;0.10;;;;;;;11.87;32.92;97488.78;4974479;28;20032;-64
2021/04/27 07:38:11;;;;;;;0.10;0.10;;;;;;;11.95;32.87;97492.94;4989552;28;20150;-64
2021/04/27 07:40:37;;;;;;;0.10;0.10;;;;;;;11.99;33.05;97485.78;4974370;28;20027;-64
2021/04/27 07:43:03;;;;;;;0.10;0.10;;;;;;;12.04;32.86;97483.03;4989178;28;20122;-64
2021/04/27 07:45:33;;;;;;;0.20;0.20;;;;;;;12.11;32.82;97482.72;4973862;28;20031;-64
2021/04/27 07:48:04;;;;;;;0.10;0.10;;;;;;;12.20;32.73;97472.00;4974097;28;20045;-64
2021/04/27 07:50:30;;;;;;;0.17;0.17;;;;;;;12.26;32.83;97473.63;4971911;28;20034;-64
2021/04/27 07:52:56;;;;;;;0.13;0.13;;;;;;;12.31;32.83;97484.63;4967250;28;20039;-63
2021/04/27 07:55:23;;;;;;;0.10;0.10;;;;;;;12.30;32.82;97482.97;4963976;28;20037;-65
2021/04/27 07:57:50;;;;;;;0.20;0.20;;;;;;;12.31;32.76;97464.53;4969241;28;20586;-63
2021/04/27 08:00:17;;;;;;;0.10;0.10;;;;;;;12.37;32.60;97466.19;4979320;28;20039;-64
2021/04/27 08:02:43;;;;;;;0.10;0.10;;;;;;;12.47;32.53;97484.56;4965433;28;20042;-64
2021/04/27 08:05:10;;;;;;;0.10;0.10;;;;;;;12.68;32.49;97479.84;4971282;28;20026;-64
2021/04/27 08:07:36;;;;;;;0.10;0.10;;;;;;;12.85;32.30;97461.00;4971364;28;20023;-64
2021/04/27 08:10:05;;;;;;;0.10;0.10;;;;;;;12.91;32.21;97459.91;4971775;28;20050;-63
2021/04/27 08:12:31;;;;;;;0.10;0.10;;;;;;;12.95;31.99;97474.75;4971960;28;20050;-65
2021/04/27 08:14:57;;;;;;;0.10;0.10;;;;;;;13.05;32.01;97462.84;4968894;28;20035;-64
2021/04/27 08:17:23;;;;;;;0.10;0.10;;;;;;;13.10;32.00;97475.78;4971782;28;20110;-64
2021/04/27 08:19:50;;;;;;;0.10;0.10;;;;;;;13.13;31.89;97480.72;4966983;28;20031;-64
2021/04/27 08:22:16;;;;;;;0.10;0.10;;;;;;;13.25;32.09;97491.41;4971840;28;20046;-64
2021/04/27 08:24:46;;;;;;;0.10;0.10;;;;;;;13.48;31.81;97484.41;4970598;28;20023;-67
2021/04/27 08:27:16;;;;;;;0.10;0.10;;;;;;;13.62;31.84;97482.66;4984734;28;20026;-65
2021/04/27 08:29:43;;;;;;;0.10;0.10;;;;;;;13.77;31.63;97481.69;4972318;28;20436;-64
2021/04/27 08:32:10;;;;;;;0.10;0.10;;;;;;;13.90;31.41;97471.94;4964120;28;20651;-65
2021/04/27 08:34:36;;;;;;;0.10;0.10;;;;;;;13.86;31.56;97470.88;4971195;28;20450;-64
2021/04/27 08:37:03;;;;;;;0.10;0.10;;;;;;;13.87;31.52;97471.69;4967743;28;20047;-66
2021/04/27 08:39:29;;;;;;;0.20;0.20;;;;;;;13.94;31.59;97461.97;4986438;28;20041;-65
2021/04/27 08:41:56;;;;;;;0.10;0.10;;;;;;;13.98;31.88;97460.25;4970642;28;20035;-64
2021/04/27 08:44:22;;;;;;;0.10;0.10;;;;;;;14.14;31.39;97454.59;4971303;28;20169;-64
2021/04/27 08:46:48;;;;;;;0.10;0.10;;;;;;;14.35;31.28;97458.81;4969477;28;20113;-65
2021/04/27 08:49:15;;;;;;;0.10;0.10;;;;;;;14.50;30.98;97471.63;4969626;28;20035;-64
2021/04/27 08:51:41;;;;;;;0.10;0.10;;;;;;;14.66;30.90;97457.66;4970158;28;20034;-65
2021/04/27 08:54:08;;;;;;;0.10;0.10;;;;;;;14.79;31.17;97456.94;4971685;28;20027;-67
2021/04/27 08:56:34;;;;;;;0.10;0.10;;;;;;;14.89;30.75;97462.31;4971920;28;20118;-65
2021/04/27 08:59:03;;;;;;;0.10;0.10;;;;;;;15.02;30.92;97455.25;4975101;28;20068;-65
2021/04/27 09:01:28;;;;;;;0.10;0.10;;;;;;;15.10;30.62;97464.81;4973990;28;20062;-65
2021/04/27 09:03:54;;;;;;;0.10;0.10;;;;;;;15.06;31.05;97452.69;4972629;28;20035;-65
2021/04/27 09:06:23;;;;;;;0.10;0.10;;;;;;;14.99;31.17;97468.84;4974851;28;20436;-66
2021/04/27 09:08:53;;;;;;;0.10;0.10;;;;;;;14.92;31.08;97465.63;4973762;28;20042;-65
2021/04/27 09:11:40;;;;;;;0.10;0.10;;;;;;;14.90;31.40;97457.63;4974730;28;20059;-64
2021/04/27 09:14:20;;;;;;;0.20;0.20;;;;;;;14.93;31.32;97457.03;4973190;28;20034;-65
2021/04/27 09:16:49;;;;;;;0.10;0.10;;;;;;;15.03;31.33;97456.91;4973084;28;20046;-63
2021/04/27 09:19:34;;;;;;;0.15;0.15;;;;;;;15.10;31.20;97452.94;4975168;28;20031;-65
2021/04/27 09:22:02;;;;;;;0.30;0.30;;;;;;;15.12;31.11;97450.69;4972337;28;20081;-64
2021/04/27 09:24:28;;;;;;;0.10;0.10;;;;;;;15.07;31.37;97451.59;4973493;28;20503;-65
2021/04/27 09:26:54;;;;;;;0.13;0.13;;;;;;;14.92;31.56;97452.63;4975067;28;20058;-64
2021/04/27 09:29:32;;;;;;;0.10;0.10;;;;;;;14.68;32.01;97447.94;4974819;28;20455;-65
2021/04/27 09:31:58;;;;;;;0.10;0.10;;;;;;;14.65;31.92;97456.84;4974612;28;20062;-65
2021/04/27 09:34:46;;;;;;;0.10;0.10;;;;;;;14.68;31.71;97453.47;4974937;28;20026;-64
2021/04/27 09:37:12;;;;;;;0.10;0.10;;;;;;;14.69;31.69;97457.06;4972450;28;20042;-66
2021/04/27 09:39:44;;;;;;;0.20;0.20;;;;;;;14.75;31.50;97455.06;4974252;28;20031;-64
2021/04/27 09:42:10;;;;;;;0.10;0.10;;;;;;;14.89;31.27;97472.56;4974898;28;20496;-65
2021/04/27 09:44:45;;;;;;;0.28;0.28;;;;;;;15.09;31.05;97462.34;4974777;28;20030;-64
2021/04/27 09:47:13;;;;;;;0.35;0.35;;;;;;;15.30;30.79;97460.13;4973460;28;20042;-64
2021/04/27 09:49:39;;;;;;;0.10;0.10;;;;;;;15.36;30.85;97459.75;4971317;28;20027;-65
2021/04/27 09:52:11;;;;;;;0.10;0.10;;;;;;;15.44;30.57;97457.44;4974221;28;20094;-65
2021/04/27 09:55:01;;;;;;;0.10;0.10;;;;;;;15.55;30.46;97461.69;4974177;28;20038;-65
2021/04/27 09:57:29;;;;;;;0.10;0.10;;;;;;;15.65;30.63;97452.38;4973070;28;20046;-65
2021/04/27 09:59:58;;;;;;;0.30;0.30;;;;;;;15.82;30.59;97443.59;4970619;28;20088;-65
2021/04/27 10:02:24;;;;;;;0.10;0.10;;;;;;;16.05;30.21;97448.16;4974044;28;20027;-65
2021/04/27 10:04:53;;;;;;;0.10;0.10;;;;;;;16.15;30.08;97446.31;4974324;28;20065;-63
2021/04/27 10:07:19;;;;;;;0.20;0.20;;;;;;;15.99;30.18;97451.31;4972347;28;20031;-66
2021/04/27 10:09:47;;;;;;;0.20;0.20;;;;;;;15.71;30.85;97446.50;4970289;28;20501;-65
2021/04/27 10:12:13;;;;;;;0.10;0.10;;;;;;;15.54;30.68;97449.78;4974531;28;20122;-64
2021/04/27 10:14:41;;;;;;;0.10;0.10;;;;;;;15.39;31.22;97455.56;4973139;28;20033;-65
2021/04/27 10:17:07;;;;;;;0.10;0.10;;;;;;;15.45;31.20;97451.59;4973818;28;20030;-64
2021/04/27 10:19:35;;;;;;;0.10;0.10;;;;;;;15.42;31.12;97453.00;4974167;28;20053;-67
2021/04/27 10:22:01;;;;;;;0.40;0.40;;;;;;;15.46;30.97;97463.47;4973907;28;20031;-65
2021/04/27 10:24:27;;;;;;;0.75;0.35;;;;;;;15.58;30.99;97458.31;4984492;28;20536;-67
2021/04/27 10:26:54;;;;;;;0.22;0.22;;;;;;;15.66;30.73;97456.81;4971763;28;20053;-64
2021/04/27 10:29:25;;;;;;;0.10;0.10;;;;;;;15.74;30.69;97448.66;4955961;28;20031;-65
2021/04/27 10:32:15;;;;;;;0.10;0.10;;;;;;;15.89;30.60;97444.00;4988230;28;20089;-66
2021/04/27 10:34:59;;;;;;;0.10;0.10;;;;;;;15.88;30.51;97439.59;4951846;29;20658;-65
2021/04/27 10:37:27;;;;;;;0.10;0.10;;;;;;;15.81;30.51;97439.16;4951990;29;20126;-66
2021/04/27 10:39:53;;;;;;;0.10;0.10;;;;;;;15.79;30.71;97433.13;4951825;29;20039;-66
2021/04/27 10:42:28;;;;;;;0.10;0.10;;;;;;;15.77;30.75;97431.44;4952160;29;20059;-65
2021/04/27 10:45:07;;;;;;;0.15;0.15;;;;;;;15.76;30.57;97426.22;4945010;29;20035;-68
2021/04/27 10:47:46;;;;;;;0.10;0.10;;;;;;;15.77;30.60;97431.44;4933481;29;20067;-65
2021/04/27 10:50:29;;;;;;;0.10;0.10;;;;;;;15.76;30.80;97434.50;4949581;29;20039;-67
2021/04/27 10:53:15;;;;;;;0.85;0.20;;;;;;;15.71;30.56;97427.13;4950132;29;20075;-66
2021/04/27 10:55:51;;;;;;;0.10;0.10;;;;;;;15.71;30.67;97427.13;4950795;29;20039;-65
2021/04/27 10:58:47;;;;;;;0.10;0.10;;;;;;;15.68;30.64;97424.97;4950106;29;20043;-65
2021/04/27 11:01:22;;;;;;;0.10;0.10;;;;;;;15.63;30.72;97425.03;4944714;29;20089;-65
2021/04/27 11:03:50;;;;;;;0.10;0.10;;;;;;;15.53;31.09;97426.03;4951385;29;20031;-69
2021/04/27 11:06:17;;;;;;;0.10;0.10;;;;;;;15.41;31.05;97429.25;4949667;29;20544;-64
2021/04/27 11:08:52;;;;;;;0.20;0.20;;;;;;;15.28;31.08;97435.53;4951829;29;20043;-68
2021/04/27 11:11:29;;;;;;;0.10;0.10;;;;;;;15.15;31.41;97430.75;4958502;28;20562;-65
2021/04/27 11:14:20;;;;;;;0.10;0.10;;;;;;;15.09;31.41;97430.03;4971128;28;20034;-65
2021/04/27 11:16:57;;;;;;;0.10;0.10;;;;;;;15.11;31.24;97432.47;4972486;28;20038;-66
2021/04/27 11:19:29;;;;;;;0.10;0.10;;;;;;;15.06;31.09;97428.66;4972393;28;20031;-64
2021/04/27 11:22:14;;;;;;;0.10;0.10;;;;;;;15.02;31.12;97426.81;4968489;28;20038;-63
2021/04/27 11:24:41;;;;;;;0.10;0.10;;;;;;;14.96;31.38;97426.03;4972399;28;20046;-65
2021/04/27 11:27:32;;;;;;;0.20;0.20;;;;;;;14.90;31.49;97430.00;4972538;28;20385;-66
2021/04/27 11:30:05;;;;;;;0.10;0.10;;;;;;;14.78;31.63;97424.91;4916005;29;20047;-64
2021/04/27 11:32:32;;;;;;;0.10;0.10;;;;;;;14.77;31.27;97430.72;4929553;29;20095;-64
2021/04/27 11:34:59;;;;;;;0.10;0.10;;;;;;;14.76;31.53;97432.66;4928362;29;20469;-64
2021/04/27 11:37:56;;;;;;;0.20;0.20;;;;;;;14.73;31.56;97433.25;4931560;29;20063;-65
2021/04/27 11:40:27;;;;;;;0.10;0.10;;;;;;;14.67;31.59;97431.69;4931762;29;20032;-65